createdAt,value
2023-03-15T00:01:27.713Z,2.90
2023-03-15T00:03:55.314Z,2.80
2023-03-15T00:06:22.217Z,2.80
2023-03-15T00:08:49.053Z,2.70
2023-03-15T00:11:17.041Z,2.70
2023-03-15T00:13:45.220Z,2.70
2023-03-15T00:16:17.541Z,2.80
2023-03-15T00:18:47.279Z,2.80
2023-03-15T00:21:14.547Z,2.80
2023-03-15T00:23:41.379Z,2.80
2023-03-15T00:26:08.267Z,2.80
2023-03-15T00:28:35.088Z,2.80
2023-03-15T00:31:12.047Z,2.80
2023-03-15T00:33:38.937Z,2.80
2023-03-15T00:36:07.219Z,2.80
2023-03-15T00:38:35.426Z,2.80
2023-03-15T00:41:11.074Z,2.80
2023-03-15T00:43:38.156Z,2.80
2023-03-15T00:46:06.027Z,2.80
2023-03-15T00:48:35.253Z,2.80
2023-03-15T00:51:13.845Z,2.80
2023-03-15T00:53:42.575Z,2.80
2023-03-15T00:56:12.110Z,2.80
2023-03-15T00:58:39.461Z,2.70
2023-03-15T01:01:08.632Z,2.70
2023-03-15T01:03:36.951Z,2.70
2023-03-15T01:06:18.459Z,2.70
2023-03-15T01:08:45.343Z,2.70
2023-03-15T01:11:14.786Z,2.70
2023-03-15T01:13:41.996Z,2.70
2023-03-15T01:16:13.789Z,2.70
2023-03-15T01:18:41.399Z,2.60
2023-03-15T01:21:12.990Z,2.60
2023-03-15T01:23:40.609Z,2.70
2023-03-15T01:26:10.328Z,2.70
2023-03-15T01:28:37.353Z,2.60
2023-03-15T01:31:04.815Z,2.70
2023-03-15T01:33:31.682Z,2.70
2023-03-15T01:36:06.703Z,2.70
2023-03-15T01:38:34.091Z,2.70
2023-03-15T01:41:01.305Z,2.70
2023-03-15T01:43:29.762Z,2.70
2023-03-15T01:46:07.270Z,2.70
2023-03-15T01:49:06.501Z,2.70
2023-03-15T01:51:37.332Z,2.70
2023-03-15T01:54:10.928Z,2.70
2023-03-15T01:56:41.953Z,2.70
2023-03-15T01:59:13.140Z,2.70
2023-03-15T02:01:45.574Z,2.70
2023-03-15T02:04:16.821Z,2.70
2023-03-15T02:06:46.713Z,2.70
2023-03-15T02:09:16.150Z,2.70
2023-03-15T02:11:43.520Z,2.70
2023-03-15T02:14:12.437Z,2.70
2023-03-15T02:16:39.697Z,2.70
2023-03-15T02:19:09.724Z,2.70
2023-03-15T02:21:45.113Z,2.70
2023-03-15T02:24:30.797Z,2.70
2023-03-15T02:26:58.225Z,2.70
2023-03-15T02:29:26.765Z,2.70
2023-03-15T02:31:53.726Z,2.70
2023-03-15T02:34:25.407Z,2.70
2023-03-15T02:36:52.770Z,2.70
2023-03-15T02:39:21.409Z,2.80
2023-03-15T02:41:54.679Z,2.80
2023-03-15T02:44:36.427Z,2.80
2023-03-15T02:47:06.723Z,2.80
2023-03-15T02:49:38.724Z,2.90
2023-03-15T02:52:05.866Z,2.80
2023-03-15T02:54:35.644Z,2.80
2023-03-15T02:57:02.679Z,2.80
2023-03-15T02:59:29.473Z,2.80
2023-03-15T03:01:56.400Z,2.80
2023-03-15T03:04:23.237Z,2.80
2023-03-15T03:06:50.104Z,2.70
2023-03-15T03:09:16.954Z,2.70
2023-03-15T03:11:43.921Z,2.70
2023-03-15T03:14:14.193Z,2.60
2023-03-15T03:16:42.770Z,2.60
2023-03-15T03:19:12.629Z,2.60
2023-03-15T03:21:39.769Z,2.60
2023-03-15T03:24:06.866Z,2.60
2023-03-15T03:26:33.658Z,2.60
2023-03-15T03:29:00.603Z,2.70
2023-03-15T03:31:28.066Z,2.70
2023-03-15T03:33:56.417Z,2.70
2023-03-15T03:36:24.963Z,2.70
2023-03-15T03:38:53.716Z,2.70
2023-03-15T03:41:21.400Z,2.70
2023-03-15T03:43:48.326Z,2.70
2023-03-15T03:46:15.181Z,2.60
2023-03-15T03:48:42.026Z,2.50
2023-03-15T03:51:08.947Z,2.50
2023-03-15T03:53:35.815Z,2.50
2023-03-15T03:56:05.805Z,2.40
2023-03-15T03:58:32.677Z,2.40
2023-03-15T04:01:00.525Z,2.40
2023-03-15T04:03:27.481Z,2.30
2023-03-15T04:05:55.666Z,2.30
2023-03-15T04:08:23.772Z,2.30
2023-03-15T04:10:55.694Z,2.20
2023-03-15T04:13:23.826Z,2.20
2023-03-15T04:15:51.740Z,2.10
2023-03-15T04:18:18.662Z,2.10
2023-03-15T04:20:47.533Z,2.10
2023-03-15T04:23:19.290Z,2.10
2023-03-15T04:25:49.252Z,2.10
2023-03-15T04:28:16.252Z,2.00
2023-03-15T04:30:43.216Z,2.00
2023-03-15T04:33:10.953Z,2.00
2023-03-15T04:35:42.753Z,2.00
2023-03-15T04:38:09.791Z,2.00
2023-03-15T04:40:37.157Z,2.00
2023-03-15T04:43:05.303Z,2.00
2023-03-15T04:45:32.418Z,2.00
2023-03-15T04:47:59.258Z,1.90
2023-03-15T04:50:26.168Z,1.90
2023-03-15T04:52:53.084Z,1.90
2023-03-15T04:55:19.984Z,1.90
2023-03-15T04:57:46.819Z,1.80
2023-03-15T05:00:14.395Z,1.90
2023-03-15T05:02:41.902Z,1.80
2023-03-15T05:05:09.744Z,1.80
2023-03-15T05:07:37.413Z,1.80
2023-03-15T05:10:05.611Z,1.80
2023-03-15T05:12:33.842Z,1.80
2023-03-15T05:15:00.694Z,1.80
2023-03-15T05:17:27.994Z,1.80
2023-03-15T05:19:54.843Z,1.80
2023-03-15T05:22:25.599Z,1.90
2023-03-15T05:24:53.803Z,1.90
2023-03-15T05:27:20.962Z,1.90
2023-03-15T05:29:47.963Z,1.80
2023-03-15T05:32:14.734Z,1.80
2023-03-15T05:34:42.913Z,1.80
2023-03-15T05:37:10.353Z,1.80
2023-03-15T05:39:37.219Z,1.80
2023-03-15T05:42:04.219Z,1.70
2023-03-15T05:44:31.041Z,1.70
2023-03-15T05:46:57.840Z,1.70
2023-03-15T05:49:24.607Z,1.70
2023-03-15T05:51:51.412Z,1.60
2023-03-15T05:54:19.486Z,1.60
2023-03-15T05:56:49.091Z,1.60
2023-03-15T05:59:15.900Z,1.60
2023-03-15T06:01:42.717Z,1.50
2023-03-15T06:04:09.747Z,1.60
2023-03-15T06:06:36.545Z,1.50
2023-03-15T06:09:03.661Z,1.50
2023-03-15T06:11:30.597Z,1.50
2023-03-15T06:13:57.430Z,1.50
2023-03-15T06:16:24.350Z,1.40
2023-03-15T06:18:51.255Z,1.40
2023-03-15T06:21:18.124Z,1.40
2023-03-15T06:23:44.956Z,1.40
2023-03-15T06:26:11.844Z,1.40
2023-03-15T06:28:38.762Z,1.40
2023-03-15T06:31:09.580Z,1.40
2023-03-15T06:33:36.691Z,1.40
2023-03-15T06:36:05.094Z,1.40
2023-03-15T06:38:35.146Z,1.40
2023-03-15T06:41:01.989Z,1.40
2023-03-15T06:43:28.828Z,1.40
2023-03-15T06:45:56.864Z,1.40
2023-03-15T06:48:23.801Z,1.40
2023-03-15T06:50:50.623Z,1.50
2023-03-15T06:53:17.926Z,1.50
2023-03-15T06:55:45.715Z,1.50
2023-03-15T06:58:13.659Z,1.50
2023-03-15T07:00:41.068Z,1.50
2023-03-15T07:03:07.979Z,1.50
2023-03-15T07:05:34.798Z,1.50
2023-03-15T07:08:01.646Z,1.50
2023-03-15T07:10:28.420Z,1.60
2023-03-15T07:12:55.173Z,1.70
2023-03-15T07:15:21.920Z,1.80
2023-03-15T07:17:48.776Z,1.80
2023-03-15T07:20:17.982Z,1.80
2023-03-15T07:22:45.696Z,1.80
2023-03-15T07:25:13.317Z,1.80
2023-03-15T07:27:40.162Z,1.80
2023-03-15T07:30:08.871Z,1.70
2023-03-15T07:32:35.853Z,1.80
2023-03-15T07:35:02.774Z,1.80
2023-03-15T07:37:29.636Z,1.90
2023-03-15T07:39:57.891Z,1.90
2023-03-15T07:42:24.958Z,2.00
2023-03-15T07:44:51.806Z,2.10
2023-03-15T07:47:18.596Z,2.00
2023-03-15T07:49:45.468Z,2.10
2023-03-15T07:52:12.262Z,2.20
2023-03-15T07:54:39.192Z,2.20
2023-03-15T07:57:06.493Z,2.20
2023-03-15T07:59:33.780Z,2.20
2023-03-15T08:02:02.838Z,2.10
2023-03-15T08:04:29.957Z,2.30
2023-03-15T08:06:57.076Z,2.30
2023-03-15T08:09:25.058Z,2.40
2023-03-15T08:11:51.970Z,2.50
2023-03-15T08:14:18.821Z,2.50
2023-03-15T08:16:45.673Z,2.50
2023-03-15T08:19:12.504Z,2.50
2023-03-15T08:21:39.344Z,2.60
2023-03-15T08:24:06.431Z,2.60
2023-03-15T08:26:33.230Z,2.60
2023-03-15T08:29:00.115Z,2.70
2023-03-15T08:31:26.953Z,2.80
2023-03-15T08:33:53.743Z,2.70
2023-03-15T08:36:20.964Z,2.70
2023-03-15T08:38:47.816Z,2.80
2023-03-15T08:41:14.651Z,2.80
2023-03-15T08:43:41.394Z,2.90
2023-03-15T08:46:08.211Z,3.00
2023-03-15T08:48:35.052Z,3.10
2023-03-15T08:51:06.166Z,3.20
2023-03-15T08:53:33.344Z,3.20
2023-03-15T08:56:00.409Z,3.30
2023-03-15T08:58:27.312Z,3.40
2023-03-15T09:00:54.191Z,3.40
2023-03-15T09:03:22.606Z,3.40
2023-03-15T09:05:49.852Z,3.30
2023-03-15T09:08:21.065Z,3.20
2023-03-15T09:10:47.937Z,3.20
2023-03-15T09:13:14.740Z,3.20
2023-03-15T09:15:41.544Z,3.20
2023-03-15T09:18:08.394Z,3.20
2023-03-15T09:20:35.265Z,3.30
2023-03-15T09:23:02.149Z,3.30
2023-03-15T09:25:28.982Z,3.40
2023-03-15T09:27:55.950Z,3.60
2023-03-15T09:30:23.301Z,3.70
2023-03-15T09:32:51.467Z,3.90
2023-03-15T09:35:20.021Z,4.00
2023-03-15T09:37:48.605Z,4.10
2023-03-15T09:40:30.834Z,4.30
2023-03-15T09:43:03.828Z,4.30
2023-03-15T09:45:55.239Z,4.40
2023-03-15T09:48:36.141Z,4.50
2023-03-15T09:51:23.180Z,4.60
2023-03-15T09:54:32.199Z,4.70
2023-03-15T09:57:03.768Z,4.90
2023-03-15T09:59:34.412Z,4.90
2023-03-15T10:02:04.584Z,5.00
2023-03-15T10:04:42.666Z,5.00
2023-03-15T10:07:14.736Z,5.10
2023-03-15T10:09:41.553Z,5.10
2023-03-15T10:12:41.441Z,5.20
2023-03-15T10:15:29.954Z,5.20
2023-03-15T10:17:59.707Z,5.20
2023-03-15T10:20:34.293Z,5.30
2023-03-15T10:23:05.893Z,5.40
2023-03-15T10:25:36.049Z,5.50
2023-03-15T10:28:13.058Z,5.50
2023-03-15T10:30:46.808Z,5.60
2023-03-15T10:33:34.384Z,5.70
2023-03-15T10:36:11.444Z,5.70
2023-03-15T10:38:38.751Z,5.80
2023-03-15T10:41:06.628Z,5.90
2023-03-15T10:43:37.081Z,6.00
2023-03-15T10:46:06.964Z,6.20
2023-03-15T10:49:01.083Z,6.10
2023-03-15T10:51:31.402Z,6.00
2023-03-15T10:54:20.363Z,6.00
2023-03-15T10:56:51.125Z,6.00
2023-03-15T10:59:20.836Z,6.10
2023-03-15T11:01:48.937Z,6.30
2023-03-15T11:04:24.329Z,6.40
2023-03-15T11:07:03.462Z,6.50
2023-03-15T11:09:42.362Z,6.50
2023-03-15T11:12:11.066Z,6.50
2023-03-15T11:14:43.918Z,6.50
2023-03-15T11:17:41.852Z,6.50
2023-03-15T11:20:31.879Z,6.50
2023-03-15T11:23:00.094Z,6.50
2023-03-15T11:25:31.501Z,6.50
2023-03-15T11:27:58.757Z,6.60
2023-03-15T11:30:29.317Z,6.70
2023-03-15T11:33:01.383Z,6.80
2023-03-15T11:35:35.430Z,6.90
2023-03-15T11:38:15.940Z,6.90
2023-03-15T11:40:45.497Z,6.80
2023-03-15T11:43:18.698Z,6.90
2023-03-15T11:45:56.684Z,6.90
2023-03-15T11:48:30.360Z,7.00
2023-03-15T11:50:58.577Z,7.00
2023-03-15T11:53:29.976Z,7.00
2023-03-15T11:55:58.651Z,7.00
2023-03-15T11:58:37.056Z,7.10
2023-03-15T12:01:06.190Z,7.10
2023-03-15T12:03:51.385Z,7.10
2023-03-15T12:06:18.588Z,7.10
2023-03-15T12:08:53.434Z,7.20
2023-03-15T12:11:20.478Z,7.20
2023-03-15T12:13:53.249Z,7.30
2023-03-15T12:16:26.806Z,7.30
2023-03-15T12:18:57.723Z,7.40
2023-03-15T12:21:34.447Z,7.40
2023-03-15T12:24:05.356Z,7.50
2023-03-15T12:26:41.139Z,7.50
2023-03-15T12:29:12.992Z,7.70
2023-03-15T12:31:50.729Z,7.70
2023-03-15T12:34:44.297Z,7.90
2023-03-15T12:37:14.347Z,7.90
2023-03-15T12:39:50.797Z,8.00
2023-03-15T12:42:46.843Z,8.00
2023-03-15T12:45:16.854Z,8.20
2023-03-15T12:48:06.592Z,8.20
2023-03-15T12:50:44.010Z,8.30
2023-03-15T12:53:38.787Z,8.50
2023-03-15T12:56:32.718Z,8.60
2023-03-15T12:59:31.874Z,8.70
2023-03-15T13:02:00.950Z,8.80
2023-03-15T13:04:29.130Z,8.80
2023-03-15T13:07:51.763Z,8.90
2023-03-15T13:10:22.181Z,9.10
2023-03-15T13:13:27.258Z,9.30
2023-03-15T13:16:05.229Z,9.30
2023-03-15T13:18:34.512Z,9.40
2023-03-15T13:21:23.858Z,9.50
2023-03-15T13:23:54.832Z,9.60
2023-03-15T13:26:33.724Z,9.60
2023-03-15T13:29:06.445Z,9.70
2023-03-15T13:31:33.531Z,9.80
2023-03-15T13:34:20.792Z,9.90
2023-03-15T13:36:51.034Z,10.00
2023-03-15T13:39:24.312Z,10.10
2023-03-15T13:42:00.444Z,10.10
2023-03-15T13:44:28.549Z,10.30
2023-03-15T13:46:55.485Z,10.30
2023-03-15T13:49:22.574Z,10.50
2023-03-15T13:51:50.941Z,10.60
2023-03-15T13:54:17.740Z,10.60
2023-03-15T13:57:07.675Z,10.70
2023-03-15T13:59:40.808Z,10.70
2023-03-15T14:02:12.034Z,10.80
2023-03-15T14:04:38.936Z,10.70
2023-03-15T14:07:17.430Z,10.90
2023-03-15T14:09:44.487Z,11.10
2023-03-15T14:12:23.167Z,11.30
2023-03-15T14:14:52.666Z,11.40
2023-03-15T14:17:27.067Z,11.70
2023-03-15T14:19:55.633Z,11.80
2023-03-15T14:22:22.831Z,11.90
2023-03-15T14:24:52.005Z,11.90
2023-03-15T14:27:26.425Z,12.00
2023-03-15T14:29:56.842Z,12.10
2023-03-15T14:32:29.832Z,12.20
2023-03-15T14:35:31.868Z,12.20
2023-03-15T14:38:24.236Z,12.10
2023-03-15T14:40:52.616Z,12.10
2023-03-15T14:43:19.746Z,12.10
2023-03-15T14:45:48.454Z,12.30
2023-03-15T14:48:28.471Z,12.50
2023-03-15T14:50:55.835Z,12.70
2023-03-15T14:53:26.117Z,12.50
2023-03-15T14:55:55.073Z,12.30
2023-03-15T14:58:23.106Z,12.20
2023-03-15T15:00:51.946Z,12.20
2023-03-15T15:03:48.921Z,12.40
2023-03-15T15:06:16.306Z,12.60
2023-03-15T15:08:45.988Z,12.90
2023-03-15T15:11:13.318Z,13.00
2023-03-15T15:13:41.151Z,12.80
2023-03-15T15:16:08.421Z,12.80
2023-03-15T15:18:36.959Z,12.80
2023-03-15T15:21:12.150Z,12.70
2023-03-15T15:23:54.897Z,12.60
2023-03-15T15:26:28.311Z,12.80
2023-03-15T15:28:56.568Z,13.00
2023-03-15T15:31:25.154Z,13.10
2023-03-15T15:33:53.530Z,13.20
2023-03-15T15:36:41.383Z,13.10
2023-03-15T15:39:21.546Z,13.10
2023-03-15T15:41:48.977Z,13.20
2023-03-15T15:44:18.332Z,13.10
2023-03-15T15:46:45.105Z,13.20
2023-03-15T15:49:12.086Z,13.20
2023-03-15T15:51:41.930Z,13.20
2023-03-15T15:54:20.369Z,13.20
2023-03-15T15:56:56.661Z,13.20
2023-03-15T15:59:25.685Z,13.20
2023-03-15T16:02:00.723Z,13.20
2023-03-15T16:04:29.628Z,13.00
2023-03-15T16:06:59.500Z,13.00
2023-03-15T16:09:28.450Z,12.90
2023-03-15T16:11:55.472Z,12.80
2023-03-15T16:14:22.475Z,12.80
2023-03-15T16:16:49.336Z,12.50
2023-03-15T16:19:16.158Z,12.60
2023-03-15T16:21:47.542Z,12.60
2023-03-15T16:24:20.881Z,12.60
2023-03-15T16:26:48.589Z,12.50
2023-03-15T16:29:22.375Z,12.50
2023-03-15T16:31:51.072Z,12.40
2023-03-15T16:34:19.179Z,12.10
2023-03-15T16:36:49.350Z,11.90
2023-03-15T16:39:17.446Z,12.00
2023-03-15T16:41:44.323Z,12.10
2023-03-15T16:44:12.589Z,12.20
2023-03-15T16:46:39.600Z,12.20
2023-03-15T16:49:06.406Z,12.20
2023-03-15T16:51:34.298Z,12.10
2023-03-15T16:54:12.812Z,12.00
2023-03-15T16:56:45.802Z,11.80
2023-03-15T16:59:17.377Z,11.80
2023-03-15T17:01:45.237Z,11.80
2023-03-15T17:04:12.744Z,11.70
2023-03-15T17:06:40.031Z,11.90
2023-03-15T17:09:11.694Z,11.80
2023-03-15T17:11:39.716Z,11.70
2023-03-15T17:14:07.971Z,11.60
2023-03-15T17:16:34.905Z,11.70
2023-03-15T17:19:02.078Z,11.70
2023-03-15T17:21:31.459Z,11.70
2023-03-15T17:23:58.727Z,11.70
2023-03-15T17:26:26.095Z,11.70
2023-03-15T17:28:53.033Z,11.60
2023-03-15T17:31:25.343Z,11.70
2023-03-15T17:33:52.858Z,11.70
2023-03-15T17:36:22.468Z,11.50
2023-03-15T17:38:49.950Z,11.50
2023-03-15T17:41:35.898Z,11.40
2023-03-15T17:44:03.896Z,11.40
2023-03-15T17:46:33.328Z,11.40
2023-03-15T17:49:03.035Z,11.40
2023-03-15T17:51:34.575Z,11.40
2023-03-15T17:54:01.755Z,11.40
2023-03-15T17:56:29.708Z,11.30
2023-03-15T17:58:56.863Z,11.30
2023-03-15T18:01:27.604Z,11.30
2023-03-15T18:03:58.537Z,11.20
2023-03-15T18:06:25.928Z,11.30
2023-03-15T18:08:53.210Z,11.10
2023-03-15T18:11:32.109Z,11.10
2023-03-15T18:13:59.571Z,11.20
2023-03-15T18:16:26.860Z,11.20
2023-03-15T18:18:54.186Z,11.10
2023-03-15T18:21:23.874Z,11.00
2023-03-15T18:23:51.577Z,10.90
2023-03-15T18:26:19.322Z,10.90
2023-03-15T18:28:49.077Z,10.80
2023-03-15T18:31:21.394Z,10.70
2023-03-15T18:33:49.114Z,10.70
2023-03-15T18:36:16.466Z,10.70
2023-03-15T18:38:43.642Z,10.60
2023-03-15T18:41:22.289Z,10.50
2023-03-15T18:43:50.320Z,10.50
2023-03-15T18:46:18.388Z,10.40
2023-03-15T18:48:46.452Z,10.40
2023-03-15T18:51:14.082Z,10.40
2023-03-15T18:53:44.667Z,10.40
2023-03-15T18:56:20.072Z,10.40
2023-03-15T18:58:51.125Z,10.30
2023-03-15T19:01:22.421Z,10.30
2023-03-15T19:03:50.375Z,10.20
2023-03-15T19:06:17.231Z,10.10
2023-03-15T19:08:44.107Z,10.10
2023-03-15T19:11:11.518Z,10.00
2023-03-15T19:13:38.626Z,9.90
2023-03-15T19:16:05.732Z,9.80
2023-03-15T19:18:32.923Z,9.80
2023-03-15T19:20:59.933Z,9.70
2023-03-15T19:23:27.458Z,9.70
2023-03-15T19:25:54.566Z,9.70
2023-03-15T19:28:21.434Z,9.60
2023-03-15T19:30:48.884Z,9.50
2023-03-15T19:33:15.858Z,9.40
2023-03-15T19:35:42.723Z,9.40
2023-03-15T19:38:09.677Z,9.40
2023-03-15T19:40:37.368Z,9.20
2023-03-15T19:43:04.558Z,9.30
2023-03-15T19:45:31.770Z,9.20
2023-03-15T19:47:58.782Z,9.20
2023-03-15T19:50:31.049Z,9.10
2023-03-15T19:52:58.682Z,9.00
2023-03-15T19:55:28.437Z,9.00
2023-03-15T19:57:56.556Z,9.00
2023-03-15T20:00:25.260Z,8.90
2023-03-15T20:02:52.271Z,8.90
2023-03-15T20:05:20.319Z,8.80
2023-03-15T20:07:50.702Z,8.70
2023-03-15T20:10:19.525Z,8.70
2023-03-15T20:12:47.276Z,8.70
2023-03-15T20:15:17.088Z,8.60
2023-03-15T20:17:44.711Z,8.50
2023-03-15T20:20:13.848Z,8.40
2023-03-15T20:22:45.513Z,8.40
2023-03-15T20:25:14.499Z,8.30
2023-03-15T20:27:41.965Z,8.30
2023-03-15T20:30:12.561Z,8.20
2023-03-15T20:32:39.512Z,8.20
2023-03-15T20:35:09.309Z,8.10
2023-03-15T20:37:39.807Z,8.00
2023-03-15T20:40:09.049Z,8.00
2023-03-15T20:42:36.207Z,8.00
2023-03-15T20:45:04.565Z,8.00
2023-03-15T20:47:31.376Z,7.90
2023-03-15T20:49:58.318Z,7.90
2023-03-15T20:52:25.690Z,7.80
2023-03-15T20:54:52.565Z,7.70
2023-03-15T20:57:22.078Z,7.70
2023-03-15T20:59:49.424Z,7.70
2023-03-15T21:02:19.537Z,7.70
2023-03-15T21:04:46.951Z,7.60
2023-03-15T21:07:17.375Z,7.60
2023-03-15T21:09:44.757Z,7.50
2023-03-15T21:12:13.067Z,7.40
2023-03-15T21:14:40.338Z,7.40
2023-03-15T21:17:07.764Z,7.50
2023-03-15T21:19:35.095Z,7.40
2023-03-15T21:22:02.611Z,7.40
2023-03-15T21:24:31.504Z,7.40
2023-03-15T21:26:58.835Z,7.40
2023-03-15T21:29:25.983Z,7.40
2023-03-15T21:31:53.419Z,7.30
2023-03-15T21:34:20.771Z,7.30
2023-03-15T21:36:48.116Z,7.20
2023-03-15T21:39:15.611Z,7.20
2023-03-15T21:41:42.954Z,7.20
2023-03-15T21:44:10.972Z,7.20
2023-03-15T21:46:38.379Z,7.10
2023-03-15T21:49:06.111Z,7.10
2023-03-15T21:51:34.670Z,7.10
2023-03-15T21:54:01.762Z,7.10
2023-03-15T21:56:28.542Z,7.00
2023-03-15T21:58:55.584Z,7.00
2023-03-15T22:01:25.227Z,7.00
2023-03-15T22:03:55.017Z,7.00
2023-03-15T22:06:22.759Z,6.90
2023-03-15T22:08:49.922Z,7.00
2023-03-15T22:11:16.814Z,6.90
2023-03-15T22:13:43.698Z,6.90
2023-03-15T22:16:11.580Z,6.80
2023-03-15T22:18:38.372Z,6.80
2023-03-15T22:21:05.439Z,6.80
2023-03-15T22:23:32.349Z,6.80
2023-03-15T22:25:59.149Z,6.80
2023-03-15T22:28:25.951Z,6.80
2023-03-15T22:30:53.588Z,6.80
2023-03-15T22:33:22.268Z,6.80
2023-03-15T22:35:58.929Z,6.80
2023-03-15T22:38:26.362Z,6.80
2023-03-15T22:41:01.306Z,6.70
2023-03-15T22:43:28.561Z,6.70
2023-03-15T22:45:55.462Z,6.70
2023-03-15T22:48:23.059Z,6.70
2023-03-15T22:51:00.937Z,6.70
2023-03-15T22:53:28.654Z,6.70
2023-03-15T22:55:55.698Z,6.70
2023-03-15T22:58:22.890Z,6.60
2023-03-15T23:00:50.515Z,6.70
2023-03-15T23:03:18.279Z,6.70
2023-03-15T23:05:46.049Z,6.60
2023-03-15T23:08:13.113Z,6.60
2023-03-15T23:10:41.143Z,6.60
2023-03-15T23:13:08.082Z,6.60
2023-03-15T23:15:35.154Z,6.60
2023-03-15T23:18:02.226Z,6.50
2023-03-15T23:20:30.007Z,6.50
2023-03-15T23:22:57.200Z,6.50
2023-03-15T23:25:25.052Z,6.60
2023-03-15T23:27:51.864Z,6.50
2023-03-15T23:30:18.841Z,6.50
2023-03-15T23:32:45.680Z,6.50
2023-03-15T23:35:12.933Z,6.50
2023-03-15T23:37:40.170Z,6.50
2023-03-15T23:40:15.695Z,6.50
2023-03-15T23:42:43.867Z,6.50
2023-03-15T23:45:12.251Z,6.40
2023-03-15T23:47:39.632Z,6.50
2023-03-15T23:50:08.146Z,6.50
2023-03-15T23:52:35.753Z,6.40
2023-03-15T23:55:02.657Z,6.40
2023-03-15T23:57:29.519Z,6.50
2023-03-15T23:59:56.305Z,6.40
